createdAt,value
2019-02-14T00:00:07.249Z,27.19
2019-02-14T00:01:07.247Z,27.18
2019-02-14T00:02:07.251Z,27.04
2019-02-14T00:03:07.252Z,27.07
2019-02-14T00:04:07.253Z,27.12
2019-02-14T00:05:15.906Z,27.18
2019-02-14T00:06:07.259Z,27.17
2019-02-14T00:07:07.261Z,27.13
2019-02-14T00:08:07.265Z,27.18
2019-02-14T00:09:07.268Z,27.09
2019-02-14T00:10:07.273Z,27.13
2019-02-14T00:11:07.273Z,27.13
2019-02-14T00:12:07.275Z,27.13
2019-02-14T00:13:07.280Z,27.07
2019-02-14T00:14:07.284Z,27.12
2019-02-14T00:15:07.289Z,27.17
2019-02-14T00:16:07.289Z,27.18
2019-02-14T00:17:07.291Z,27.17
2019-02-14T00:18:07.295Z,27.13
2019-02-14T00:19:07.297Z,27.18
2019-02-14T00:20:07.327Z,27.07
2019-02-14T00:21:07.311Z,27.18
2019-02-14T00:22:07.317Z,27.18
2019-02-14T00:23:07.309Z,27.04
2019-02-14T00:24:07.314Z,27.10
2019-02-14T00:25:07.315Z,27.14
2019-02-14T00:26:07.319Z,27.12
2019-02-14T00:27:07.321Z,27.13
2019-02-14T00:28:07.327Z,27.13
2019-02-14T00:29:07.327Z,27.14
2019-02-14T00:30:07.331Z,27.13
2019-02-14T00:31:07.332Z,27.07
2019-02-14T00:32:07.336Z,27.14
2019-02-14T00:33:07.342Z,27.18
2019-02-14T00:34:07.343Z,27.12
2019-02-14T00:35:07.346Z,27.18
2019-02-14T00:36:07.350Z,27.14
2019-02-14T00:37:07.351Z,27.18
2019-02-14T00:38:07.363Z,27.12
2019-02-14T00:39:07.364Z,27.06
2019-02-14T00:40:07.370Z,27.18
2019-02-14T00:41:07.367Z,27.14
2019-02-14T00:42:07.367Z,27.18
2019-02-14T00:43:07.370Z,27.09
2019-02-14T00:44:07.375Z,27.07
2019-02-14T00:45:07.375Z,27.13
2019-02-14T00:46:07.377Z,27.18
2019-02-14T00:47:07.381Z,27.18
2019-02-14T00:48:07.384Z,27.14
2019-02-14T00:49:07.392Z,27.14
2019-02-14T00:50:07.393Z,27.03
2019-02-14T00:51:07.394Z,27.10
2019-02-14T00:52:07.397Z,27.13
2019-02-14T00:53:07.405Z,27.10
2019-02-14T00:54:07.402Z,27.13
2019-02-14T00:55:07.419Z,27.09
2019-02-14T00:56:07.408Z,27.10
2019-02-14T00:57:07.412Z,27.04
2019-02-14T00:58:07.415Z,27.14
2019-02-14T00:59:07.417Z,27.09
2019-02-14T01:00:07.420Z,27.07
2019-02-14T01:01:07.431Z,27.09
2019-02-14T01:02:07.426Z,27.06
2019-02-14T01:03:07.431Z,27.14
2019-02-14T01:04:07.432Z,27.18
2019-02-14T01:05:07.448Z,27.17
2019-02-14T01:06:07.445Z,27.09
2019-02-14T01:07:07.446Z,27.13
2019-02-14T01:08:07.449Z,27.17
2019-02-14T01:09:07.447Z,27.14
2019-02-14T01:10:07.451Z,27.10
2019-02-14T01:11:07.464Z,27.17
2019-02-14T01:12:07.460Z,27.13
2019-02-14T01:13:07.458Z,27.09
2019-02-14T01:14:07.464Z,27.14
2019-02-14T01:15:07.465Z,27.09
2019-02-14T01:16:07.469Z,27.12
2019-02-14T01:17:07.472Z,27.17
2019-02-14T01:18:07.475Z,27.10
2019-02-14T01:19:07.480Z,27.13
2019-02-14T01:20:07.483Z,27.18
2019-02-14T01:21:07.484Z,27.13
2019-02-14T01:22:07.489Z,27.13
2019-02-14T01:23:07.489Z,27.13
2019-02-14T01:24:07.492Z,27.18
2019-02-14T01:25:07.497Z,27.07
2019-02-14T01:26:07.499Z,27.13
2019-02-14T01:27:07.545Z,27.13
2019-02-14T01:28:07.505Z,27.07
2019-02-14T01:29:07.507Z,27.10
2019-02-14T01:30:07.513Z,27.18
2019-02-14T01:31:07.511Z,27.18
2019-02-14T01:32:07.517Z,27.10
2019-02-14T01:33:07.521Z,27.18
2019-02-14T01:34:07.522Z,27.09
2019-02-14T01:35:07.525Z,27.18
2019-02-14T01:36:07.530Z,27.19
2019-02-14T01:37:07.533Z,27.12
2019-02-14T01:38:07.537Z,27.07
2019-02-14T01:39:07.538Z,27.17
2019-02-14T01:40:07.546Z,27.17
2019-02-14T01:41:07.546Z,27.14
2019-02-14T01:42:07.548Z,27.18
2019-02-14T01:43:07.550Z,27.03
2019-02-14T01:44:07.552Z,27.14
2019-02-14T01:45:07.558Z,27.10
2019-02-14T01:46:07.559Z,27.17
2019-02-14T01:47:07.991Z,27.09
2019-02-14T01:48:07.565Z,27.13
2019-02-14T01:49:07.567Z,27.06
2019-02-14T01:50:07.572Z,27.13
2019-02-14T01:51:07.573Z,27.06
2019-02-14T01:52:07.576Z,27.14
2019-02-14T01:53:07.584Z,27.12
2019-02-14T01:54:07.588Z,27.14
2019-02-14T01:55:07.585Z,27.13
2019-02-14T01:56:07.588Z,27.13
2019-02-14T01:57:07.593Z,27.07
2019-02-14T01:58:07.595Z,27.21
2019-02-14T01:59:07.597Z,27.18
2019-02-14T02:00:07.600Z,27.10
2019-02-14T02:01:07.606Z,27.12
2019-02-14T02:02:07.608Z,27.12
2019-02-14T02:03:07.612Z,27.19
2019-02-14T02:04:07.612Z,27.10
2019-02-14T02:05:07.618Z,27.10
2019-02-14T02:06:07.622Z,27.19
2019-02-14T02:07:07.621Z,27.10
2019-02-14T02:08:08.994Z,27.18
2019-02-14T02:09:07.628Z,27.18
2019-02-14T02:10:07.633Z,27.13
2019-02-14T02:11:07.633Z,27.21
2019-02-14T02:12:07.638Z,27.17
2019-02-14T02:13:07.645Z,27.09
2019-02-14T02:14:07.644Z,27.06
2019-02-14T02:15:07.646Z,27.12
2019-02-14T02:16:07.703Z,27.13
2019-02-14T02:17:07.652Z,27.18
2019-02-14T02:18:07.655Z,27.10
2019-02-14T02:19:07.660Z,27.10
2019-02-14T02:20:07.662Z,27.10
2019-02-14T02:21:07.664Z,27.17
2019-02-14T02:22:07.668Z,27.13
2019-02-14T02:23:07.669Z,27.13
2019-02-14T02:24:07.672Z,27.13
2019-02-14T02:25:07.676Z,27.14
2019-02-14T02:26:07.698Z,27.12
2019-02-14T02:27:07.681Z,27.21
2019-02-14T02:28:07.689Z,27.13
2019-02-14T02:29:07.688Z,27.10
2019-02-14T02:30:07.693Z,27.13
2019-02-14T02:31:07.698Z,27.14
2019-02-14T02:32:07.697Z,27.07
2019-02-14T02:33:07.700Z,27.13
2019-02-14T02:34:07.703Z,27.12
2019-02-14T02:35:07.707Z,27.13
2019-02-14T02:36:07.711Z,27.06
2019-02-14T02:37:07.711Z,27.18
2019-02-14T02:38:07.719Z,27.10
2019-02-14T02:39:07.717Z,27.10
2019-02-14T02:40:07.720Z,27.17
2019-02-14T02:41:07.723Z,27.13
2019-02-14T02:42:07.726Z,27.10
2019-02-14T02:43:07.729Z,27.10
2019-02-14T02:44:09.059Z,27.17
2019-02-14T02:45:07.741Z,27.07
2019-02-14T02:46:07.744Z,27.14
2019-02-14T02:47:07.741Z,27.10
2019-02-14T02:48:07.766Z,27.10
2019-02-14T02:49:07.749Z,27.14
2019-02-14T02:50:07.752Z,27.09
2019-02-14T02:51:07.753Z,27.13
2019-02-14T02:52:07.769Z,27.12
2019-02-14T02:53:07.759Z,27.14
2019-02-14T02:54:07.764Z,27.02
2019-02-14T02:55:07.767Z,27.12
2019-02-14T02:56:07.768Z,27.14
2019-02-14T02:57:07.773Z,27.06
2019-02-14T02:58:07.774Z,27.18
2019-02-14T02:59:07.777Z,27.07
2019-02-14T03:00:07.783Z,27.03
2019-02-14T03:01:07.788Z,27.07
2019-02-14T03:02:07.788Z,27.04
2019-02-14T03:03:07.789Z,27.13
2019-02-14T03:04:07.793Z,27.14
2019-02-14T03:05:07.799Z,27.13
2019-02-14T03:06:10.687Z,27.17
2019-02-14T03:07:07.801Z,27.13
2019-02-14T03:08:07.805Z,27.14
2019-02-14T03:09:07.808Z,27.17
2019-02-14T03:10:07.812Z,27.17
2019-02-14T03:11:07.816Z,27.06
2019-02-14T03:12:07.817Z,27.07
2019-02-14T03:13:07.833Z,27.09
2019-02-14T03:14:07.828Z,27.14
2019-02-14T03:15:07.825Z,27.09
2019-02-14T03:16:07.830Z,27.06
2019-02-14T03:17:07.832Z,27.09
2019-02-14T03:18:07.835Z,27.17
2019-02-14T03:19:07.851Z,27.17
2019-02-14T03:20:07.840Z,27.14
2019-02-14T03:21:07.843Z,27.14
2019-02-14T03:22:07.848Z,27.17
2019-02-14T03:23:07.849Z,27.10
2019-02-14T03:24:07.853Z,27.06
2019-02-14T03:25:07.858Z,27.12
2019-02-14T03:26:07.858Z,27.06
2019-02-14T03:27:07.862Z,27.13
2019-02-14T03:28:07.867Z,27.13
2019-02-14T03:29:07.869Z,27.14
2019-02-14T03:30:07.871Z,27.14
2019-02-14T03:31:07.895Z,27.18
2019-02-14T03:32:07.881Z,27.09
2019-02-14T03:33:07.882Z,27.10
2019-02-14T03:34:07.883Z,27.06
2019-02-14T03:35:07.889Z,27.12
2019-02-14T03:36:07.889Z,27.10
2019-02-14T03:37:07.892Z,27.14
2019-02-14T03:38:07.896Z,27.17
2019-02-14T03:39:07.897Z,27.14
2019-02-14T03:40:07.901Z,27.10
2019-02-14T03:41:07.903Z,27.02
2019-02-14T03:42:07.910Z,27.10
2019-02-14T03:43:07.911Z,27.12
2019-02-14T03:44:07.914Z,27.13
2019-02-14T03:45:07.916Z,27.09
2019-02-14T03:46:07.919Z,27.09
2019-02-14T03:47:07.924Z,27.12
2019-02-14T03:48:07.924Z,27.14
2019-02-14T03:49:07.927Z,27.14
2019-02-14T03:50:07.933Z,27.14
2019-02-14T03:51:07.933Z,27.17
2019-02-14T03:52:07.937Z,27.14
2019-02-14T03:53:07.939Z,27.06
2019-02-14T03:54:07.943Z,27.18
2019-02-14T03:55:07.945Z,27.14
2019-02-14T03:56:07.949Z,27.09
2019-02-14T03:57:07.954Z,27.13
2019-02-14T03:58:07.963Z,27.13
2019-02-14T03:59:07.958Z,27.09
2019-02-14T04:00:07.962Z,27.04
2019-02-14T04:01:07.962Z,27.07
2019-02-14T04:02:07.967Z,27.06
2019-02-14T04:03:07.970Z,27.09
2019-02-14T04:04:07.973Z,27.09
2019-02-14T04:05:07.976Z,27.13
2019-02-14T04:06:08.027Z,27.03
2019-02-14T04:07:07.982Z,27.06
2019-02-14T04:08:07.993Z,27.06
2019-02-14T04:09:07.988Z,27.13
2019-02-14T04:10:07.991Z,27.10
2019-02-14T04:11:07.993Z,27.09
2019-02-14T04:12:07.997Z,27.04
2019-02-14T04:13:08.001Z,27.13
2019-02-14T04:14:08.006Z,27.18
2019-02-14T04:15:08.007Z,27.10
2019-02-14T04:16:08.009Z,27.09
2019-02-14T04:17:08.011Z,27.09
2019-02-14T04:18:08.014Z,27.03
2019-02-14T04:19:08.015Z,27.06
2019-02-14T04:20:08.020Z,27.14
2019-02-14T04:21:08.031Z,27.10
2019-02-14T04:22:08.027Z,27.10
2019-02-14T04:23:08.028Z,27.12
2019-02-14T04:24:08.032Z,27.07
2019-02-14T04:25:08.035Z,27.06
2019-02-14T04:26:08.050Z,27.17
2019-02-14T04:27:08.040Z,27.09
2019-02-14T04:28:08.044Z,27.13
2019-02-14T04:29:08.047Z,27.14
2019-02-14T04:30:08.050Z,27.09
2019-02-14T04:31:08.053Z,27.14
2019-02-14T04:32:08.057Z,27.06
2019-02-14T04:33:08.059Z,27.07
2019-02-14T04:34:08.064Z,27.12
2019-02-14T04:35:08.063Z,27.14
2019-02-14T04:36:08.070Z,27.09
2019-02-14T04:37:08.072Z,27.12
2019-02-14T04:38:08.076Z,27.14
2019-02-14T04:39:08.076Z,27.13
2019-02-14T04:40:08.080Z,27.10
2019-02-14T04:41:08.083Z,27.12
2019-02-14T04:42:08.086Z,27.07
2019-02-14T04:43:08.093Z,27.06
2019-02-14T04:44:08.091Z,27.06
2019-02-14T04:45:08.097Z,27.09
2019-02-14T04:46:08.101Z,27.14
2019-02-14T04:47:08.100Z,27.17
2019-02-14T04:48:08.104Z,27.10
2019-02-14T04:49:08.106Z,27.07
2019-02-14T04:50:08.110Z,27.06
2019-02-14T04:51:08.112Z,27.10
2019-02-14T04:52:08.116Z,27.06
2019-02-14T04:53:08.119Z,27.12
2019-02-14T04:54:08.122Z,27.06
2019-02-14T04:55:08.124Z,27.13
2019-02-14T04:56:08.129Z,27.07
2019-02-14T04:57:08.131Z,27.09
2019-02-14T04:58:08.134Z,27.13
2019-02-14T04:59:08.139Z,27.10
2019-02-14T05:00:08.139Z,27.13
2019-02-14T05:01:08.147Z,27.14
2019-02-14T05:02:08.146Z,27.12
2019-02-14T05:03:08.150Z,27.09
2019-02-14T05:04:08.154Z,27.13
2019-02-14T05:05:08.154Z,27.13
2019-02-14T05:06:08.161Z,27.13
2019-02-14T05:07:08.160Z,27.04
2019-02-14T05:08:08.171Z,27.13
2019-02-14T05:09:08.166Z,27.10
2019-02-14T05:10:08.170Z,27.10
2019-02-14T05:11:08.173Z,27.10
2019-02-14T05:12:08.229Z,27.06
2019-02-14T05:13:08.178Z,27.13
2019-02-14T05:14:08.182Z,27.17
2019-02-14T05:15:08.186Z,27.14
2019-02-14T05:16:08.190Z,27.13
2019-02-14T05:17:08.191Z,27.13
2019-02-14T05:18:08.194Z,27.09
2019-02-14T05:19:08.197Z,27.09
2019-02-14T05:20:08.201Z,27.14
2019-02-14T05:21:08.213Z,27.06
2019-02-14T05:22:08.207Z,27.10
2019-02-14T05:23:08.208Z,27.06
2019-02-14T05:24:08.212Z,27.10
2019-02-14T05:25:08.213Z,27.04
2019-02-14T05:26:08.217Z,27.17
2019-02-14T05:27:08.220Z,27.12
2019-02-14T05:28:08.223Z,27.10
2019-02-14T05:29:08.226Z,27.06
2019-02-14T05:30:08.230Z,27.09
2019-02-14T05:31:08.246Z,27.06
2019-02-14T05:32:08.238Z,27.14
2019-02-14T05:33:08.238Z,27.12
2019-02-14T05:34:08.241Z,27.13
2019-02-14T05:35:08.243Z,27.13
2019-02-14T05:36:08.256Z,27.04
2019-02-14T05:37:08.250Z,27.07
2019-02-14T05:38:08.253Z,27.10
2019-02-14T05:39:08.256Z,27.13
2019-02-14T05:40:08.260Z,27.09
2019-02-14T05:41:08.268Z,27.09
2019-02-14T05:42:08.265Z,27.09
2019-02-14T05:43:08.267Z,27.07
2019-02-14T05:44:08.272Z,27.07
2019-02-14T05:45:08.274Z,27.04
2019-02-14T05:46:08.277Z,27.12
2019-02-14T05:47:08.279Z,27.12
2019-02-14T05:48:08.282Z,27.13
2019-02-14T05:49:08.294Z,27.13
2019-02-14T05:50:08.290Z,27.10
2019-02-14T05:51:08.292Z,27.12
2019-02-14T05:52:08.293Z,27.10
2019-02-14T05:53:08.298Z,27.17
2019-02-14T05:54:08.300Z,27.04
2019-02-14T05:55:08.303Z,27.09
2019-02-14T05:56:08.311Z,27.06
2019-02-14T05:57:08.310Z,27.14
2019-02-14T05:58:08.313Z,27.02
2019-02-14T05:59:08.316Z,27.13
2019-02-14T06:00:08.321Z,27.13
2019-02-14T06:01:08.322Z,27.12
2019-02-14T06:02:08.325Z,27.09
2019-02-14T06:03:08.327Z,27.12
2019-02-14T06:04:08.331Z,27.09
2019-02-14T06:05:08.340Z,27.13
2019-02-14T06:06:08.341Z,27.19
2019-02-14T06:07:08.342Z,27.14
2019-02-14T06:08:08.344Z,27.10
2019-02-14T06:09:08.346Z,27.09
2019-02-14T06:10:08.347Z,27.10
2019-02-14T06:11:08.355Z,27.09
2019-02-14T06:12:08.355Z,27.10
2019-02-14T06:13:08.356Z,27.10
2019-02-14T06:14:08.364Z,27.04
2019-02-14T06:15:08.368Z,27.07
2019-02-14T06:16:08.371Z,27.02
2019-02-14T06:17:08.369Z,27.02
2019-02-14T06:18:08.372Z,27.00
2019-02-14T06:19:08.376Z,27.02
2019-02-14T06:20:08.378Z,26.97
2019-02-14T06:21:08.382Z,26.94
2019-02-14T06:22:08.385Z,27.04
2019-02-14T06:23:08.387Z,27.03
2019-02-14T06:24:08.415Z,27.03
2019-02-14T06:25:08.395Z,27.06
2019-02-14T06:26:08.398Z,27.06
2019-02-14T06:27:08.400Z,27.06
2019-02-14T06:28:08.402Z,27.02
2019-02-14T06:29:08.405Z,26.99
2019-02-14T06:30:08.410Z,27.09
2019-02-14T06:31:08.421Z,27.07
2019-02-14T06:32:08.426Z,27.12
2019-02-14T06:33:08.421Z,27.04
2019-02-14T06:34:08.423Z,27.10
2019-02-14T06:35:08.423Z,27.02
2019-02-14T06:36:08.427Z,27.03
2019-02-14T06:37:09.939Z,27.07
2019-02-14T06:38:08.433Z,27.09
2019-02-14T06:39:08.435Z,27.14
2019-02-14T06:40:08.440Z,27.12
2019-02-14T06:41:08.446Z,27.13
2019-02-14T06:42:08.452Z,27.13
2019-02-14T06:43:08.453Z,27.12
2019-02-14T06:44:08.450Z,27.07
2019-02-14T06:45:08.512Z,27.04
2019-02-14T06:46:08.472Z,27.06
2019-02-14T06:47:08.457Z,27.14
2019-02-14T06:48:08.463Z,27.13
2019-02-14T06:49:08.466Z,27.06
2019-02-14T06:50:08.470Z,27.17
2019-02-14T06:51:08.471Z,27.10
2019-02-14T06:52:08.475Z,27.09
2019-02-14T06:53:08.478Z,27.13
2019-02-14T06:54:08.484Z,27.19
2019-02-14T06:55:08.487Z,27.19
2019-02-14T06:56:08.486Z,27.25
2019-02-14T06:57:08.490Z,27.22
2019-02-14T06:58:08.495Z,27.21
2019-02-14T06:59:08.498Z,27.27
2019-02-14T07:00:08.550Z,27.32
2019-02-14T07:01:08.502Z,27.24
2019-02-14T07:02:08.510Z,27.25
2019-02-14T07:03:08.512Z,27.24
2019-02-14T07:04:08.512Z,27.24
2019-02-14T07:05:08.516Z,27.22
2019-02-14T07:06:08.579Z,27.18
2019-02-14T07:07:08.521Z,27.31
2019-02-14T07:08:08.523Z,27.24
2019-02-14T07:09:08.528Z,27.18
2019-02-14T07:10:08.532Z,27.19
2019-02-14T07:11:08.533Z,27.22
2019-02-14T07:12:08.537Z,27.19
2019-02-14T07:13:08.543Z,27.21
2019-02-14T07:14:08.542Z,27.25
2019-02-14T07:15:08.545Z,27.25
2019-02-14T07:16:09.687Z,27.24
2019-02-14T07:17:08.561Z,27.22
2019-02-14T07:18:08.557Z,27.27
2019-02-14T07:19:08.557Z,27.27
2019-02-14T07:20:08.561Z,27.24
2019-02-14T07:21:08.564Z,27.25
2019-02-14T07:22:08.577Z,27.22
2019-02-14T07:23:08.570Z,27.24
2019-02-14T07:24:08.574Z,27.25
2019-02-14T07:25:08.581Z,27.27
2019-02-14T07:26:08.580Z,27.24
2019-02-14T07:27:08.584Z,27.19
2019-02-14T07:28:08.587Z,27.22
2019-02-14T07:29:08.596Z,27.24
2019-02-14T07:30:08.593Z,27.32
2019-02-14T07:31:08.606Z,27.21
2019-02-14T07:32:08.597Z,27.24
2019-02-14T07:33:08.602Z,27.25
2019-02-14T07:34:08.606Z,27.17
2019-02-14T07:35:08.607Z,27.28
2019-02-14T07:36:08.617Z,27.25
2019-02-14T07:37:08.664Z,27.24
2019-02-14T07:38:08.618Z,27.19
2019-02-14T07:39:08.619Z,27.19
2019-02-14T07:40:08.622Z,27.24
2019-02-14T07:41:08.632Z,27.21
2019-02-14T07:42:08.630Z,27.22
2019-02-14T07:43:08.636Z,27.17
2019-02-14T07:44:08.636Z,27.14
2019-02-14T07:45:08.638Z,27.21
2019-02-14T07:46:08.641Z,27.17
2019-02-14T07:47:08.642Z,27.14
2019-02-14T07:48:08.649Z,27.14
2019-02-14T07:49:08.653Z,27.19
2019-02-14T07:50:08.661Z,27.19
2019-02-14T07:51:08.657Z,27.14
2019-02-14T07:52:08.661Z,27.13
2019-02-14T07:53:08.662Z,27.14
2019-02-14T07:54:08.667Z,27.18
2019-02-14T07:55:08.760Z,27.17
2019-02-14T07:56:08.672Z,27.14
2019-02-14T07:57:08.674Z,27.19
2019-02-14T07:58:08.680Z,27.12
2019-02-14T07:59:08.680Z,27.12
2019-02-14T08:00:08.740Z,27.14
2019-02-14T08:01:08.699Z,27.06
2019-02-14T08:02:08.793Z,27.10
2019-02-14T08:03:08.693Z,27.17
2019-02-14T08:04:08.697Z,27.17
2019-02-14T08:05:08.700Z,27.18
2019-02-14T08:06:08.718Z,27.09
2019-02-14T08:07:08.706Z,27.17
2019-02-14T08:08:08.712Z,27.13
2019-02-14T08:09:08.712Z,27.18
2019-02-14T08:10:08.766Z,27.09
2019-02-14T08:11:08.716Z,27.18
2019-02-14T08:12:08.722Z,27.14
2019-02-14T08:13:08.724Z,27.10
2019-02-14T08:14:08.726Z,27.18
2019-02-14T08:15:08.732Z,27.09
2019-02-14T08:16:08.732Z,27.12
2019-02-14T08:17:08.740Z,27.09
2019-02-14T08:18:08.742Z,27.13
2019-02-14T08:19:08.749Z,27.13
2019-02-14T08:20:08.795Z,27.10
2019-02-14T08:21:08.762Z,27.19
2019-02-14T08:22:08.752Z,27.18
2019-02-14T08:23:08.769Z,27.13
2019-02-14T08:24:08.762Z,27.19
2019-02-14T08:25:08.778Z,27.24
2019-02-14T08:26:10.788Z,27.14
2019-02-14T08:27:08.793Z,27.22
2019-02-14T08:28:08.769Z,27.27
2019-02-14T08:29:08.781Z,27.21
2019-02-14T08:30:08.780Z,27.19
2019-02-14T08:31:08.798Z,27.24
2019-02-14T08:32:08.786Z,27.21
2019-02-14T08:33:08.788Z,27.21
2019-02-14T08:34:08.792Z,27.18
2019-02-14T08:35:08.792Z,27.24
2019-02-14T08:36:08.804Z,27.25
2019-02-14T08:37:08.800Z,27.19
2019-02-14T08:38:08.812Z,27.29
2019-02-14T08:39:08.803Z,27.21
2019-02-14T08:40:08.806Z,27.27
2019-02-14T08:41:08.827Z,27.24
2019-02-14T08:42:08.812Z,27.37
2019-02-14T08:43:08.817Z,27.28
2019-02-14T08:44:08.831Z,27.36
2019-02-14T08:45:08.821Z,27.36
2019-02-14T08:46:08.839Z,27.36
2019-02-14T08:47:08.829Z,27.31
2019-02-14T08:48:08.844Z,27.28
2019-02-14T08:49:08.843Z,27.32
2019-02-14T08:50:08.840Z,27.28
2019-02-14T08:51:08.841Z,27.28
2019-02-14T08:52:08.847Z,27.28
2019-02-14T08:53:08.847Z,27.39
2019-02-14T08:54:08.851Z,27.32
2019-02-14T08:55:10.110Z,27.31
2019-02-14T08:56:08.855Z,27.36
2019-02-14T08:57:08.860Z,27.31
2019-02-14T08:58:08.865Z,27.36
2019-02-14T08:59:08.866Z,27.43
2019-02-14T09:00:08.874Z,27.43
2019-02-14T09:01:08.882Z,27.41
2019-02-14T09:02:08.876Z,27.40
2019-02-14T09:03:08.889Z,27.43
2019-02-14T09:04:08.882Z,27.41
2019-02-14T09:05:08.885Z,27.28
2019-02-14T09:06:08.893Z,27.37
2019-02-14T09:07:08.921Z,27.44
2019-02-14T09:08:08.897Z,27.39
2019-02-14T09:09:08.899Z,27.41
2019-02-14T09:10:08.900Z,27.37
2019-02-14T09:11:08.924Z,27.43
2019-02-14T09:12:08.908Z,27.46
2019-02-14T09:13:17.043Z,27.37
2019-02-14T09:14:08.912Z,27.43
2019-02-14T09:15:08.968Z,27.39
2019-02-14T09:16:08.916Z,27.41
2019-02-14T09:17:08.924Z,27.40
2019-02-14T09:18:08.927Z,27.41
2019-02-14T09:19:08.936Z,27.39
2019-02-14T09:20:08.939Z,27.39
2019-02-14T09:21:08.940Z,27.41
2019-02-14T09:22:08.941Z,27.43
2019-02-14T09:23:08.945Z,27.43
2019-02-14T09:24:08.944Z,27.40
2019-02-14T09:25:08.949Z,27.41
2019-02-14T09:26:08.955Z,27.36
2019-02-14T09:27:08.954Z,27.44
2019-02-14T09:28:08.959Z,27.49
2019-02-14T09:29:08.961Z,27.43
2019-02-14T09:30:08.966Z,27.44
2019-02-14T09:31:08.977Z,27.40
2019-02-14T09:32:08.972Z,27.44
2019-02-14T09:33:08.974Z,27.49
2019-02-14T09:34:08.979Z,27.43
2019-02-14T09:35:08.980Z,27.39
2019-02-14T09:36:08.986Z,27.39
2019-02-14T09:37:08.989Z,27.44
2019-02-14T09:38:08.992Z,27.40
2019-02-14T09:39:08.994Z,27.57
2019-02-14T09:40:08.996Z,27.51
2019-02-14T09:41:09.000Z,27.51
2019-02-14T09:42:09.005Z,27.57
2019-02-14T09:43:09.063Z,27.46
2019-02-14T09:44:09.021Z,27.57
2019-02-14T09:45:09.017Z,27.59
2019-02-14T09:46:09.020Z,27.49
2019-02-14T09:47:09.032Z,27.54
2019-02-14T09:48:09.033Z,27.54
2019-02-14T09:49:09.029Z,27.57
2019-02-14T09:50:09.034Z,27.57
2019-02-14T09:51:09.035Z,27.57
2019-02-14T09:52:09.040Z,27.54
2019-02-14T09:53:09.041Z,27.57
2019-02-14T09:54:09.042Z,27.59
2019-02-14T09:55:09.060Z,27.66
2019-02-14T09:56:09.055Z,27.49
2019-02-14T09:57:09.052Z,27.51
2019-02-14T09:58:09.119Z,27.57
2019-02-14T09:59:09.077Z,27.60
2019-02-14T10:00:09.063Z,27.60
2019-02-14T10:01:09.075Z,27.60
2019-02-14T10:02:09.068Z,27.66
2019-02-14T10:03:09.071Z,27.62
2019-02-14T10:04:09.080Z,27.60
2019-02-14T10:05:09.108Z,27.65
2019-02-14T10:06:09.113Z,27.70
2019-02-14T10:07:09.090Z,27.60
2019-02-14T10:08:12.752Z,27.75
2019-02-14T10:09:09.171Z,27.65
2019-02-14T10:10:09.185Z,27.67
2019-02-14T10:11:09.098Z,27.77
2019-02-14T10:12:09.101Z,27.72
2019-02-14T10:13:09.106Z,27.69
2019-02-14T10:14:09.109Z,27.69
2019-02-14T10:15:09.110Z,27.72
2019-02-14T10:16:09.124Z,27.70
2019-02-14T10:17:09.120Z,27.67
2019-02-14T10:18:09.121Z,27.78
2019-02-14T10:19:09.135Z,27.78
2019-02-14T10:20:09.128Z,27.70
2019-02-14T10:21:09.138Z,27.77
2019-02-14T10:22:09.136Z,27.72
2019-02-14T10:23:09.137Z,27.81
2019-02-14T10:24:09.141Z,27.78
2019-02-14T10:25:09.144Z,27.74
2019-02-14T10:26:09.151Z,27.78
2019-02-14T10:27:09.153Z,27.75
2019-02-14T10:28:09.157Z,27.72
2019-02-14T10:29:09.159Z,27.77
2019-02-14T10:30:09.168Z,27.79
2019-02-14T10:31:09.168Z,27.85
2019-02-14T10:32:09.171Z,27.77
2019-02-14T10:33:09.172Z,27.72
2019-02-14T10:34:09.183Z,27.85
2019-02-14T10:35:09.177Z,27.75
2019-02-14T10:36:09.189Z,27.74
2019-02-14T10:37:09.186Z,27.77
2019-02-14T10:38:09.190Z,27.82
2019-02-14T10:39:09.193Z,27.77
2019-02-14T10:40:09.196Z,27.74
2019-02-14T10:41:09.201Z,27.87
2019-02-14T10:42:09.206Z,27.85
2019-02-14T10:43:09.207Z,27.90
2019-02-14T10:44:09.208Z,27.96
2019-02-14T10:45:09.212Z,27.77
2019-02-14T10:46:09.227Z,27.92
2019-02-14T10:47:09.224Z,27.82
2019-02-14T10:48:09.222Z,27.85
2019-02-14T10:49:09.226Z,27.85
2019-02-14T10:50:09.230Z,27.84
2019-02-14T10:51:09.237Z,27.92
2019-02-14T10:52:09.239Z,27.85
2019-02-14T10:53:09.239Z,27.90
2019-02-14T10:54:09.242Z,27.78
2019-02-14T10:55:09.301Z,27.92
2019-02-14T10:56:09.307Z,27.93
2019-02-14T10:57:09.252Z,27.96
2019-02-14T10:58:09.256Z,27.92
2019-02-14T10:59:09.262Z,27.96
2019-02-14T11:00:09.332Z,27.94
2019-02-14T11:01:09.484Z,27.94
2019-02-14T11:02:09.271Z,27.90
2019-02-14T11:03:09.323Z,27.88
2019-02-14T11:04:09.277Z,27.93
2019-02-14T11:05:09.281Z,27.93
2019-02-14T11:06:09.284Z,27.94
2019-02-14T11:07:09.288Z,27.90
2019-02-14T11:08:09.290Z,27.99
2019-02-14T11:09:09.294Z,28.02
2019-02-14T11:10:09.307Z,28.00
2019-02-14T11:11:09.320Z,27.97
2019-02-14T11:12:09.304Z,27.96
2019-02-14T11:13:09.308Z,27.97
2019-02-14T11:14:09.312Z,28.03
2019-02-14T11:15:09.345Z,27.97
2019-02-14T11:16:09.888Z,27.97
2019-02-14T11:17:09.324Z,27.99
2019-02-14T11:18:09.649Z,28.06
2019-02-14T11:19:09.330Z,28.04
2019-02-14T11:20:09.334Z,28.06
2019-02-14T11:21:09.341Z,28.02
2019-02-14T11:22:09.340Z,28.09
2019-02-14T11:23:09.345Z,28.06
2019-02-14T11:24:09.347Z,28.03
2019-02-14T11:25:09.351Z,28.11
2019-02-14T11:26:09.352Z,28.00
2019-02-14T11:27:09.358Z,28.09
2019-02-14T11:28:09.365Z,28.02
2019-02-14T11:29:09.365Z,28.03
2019-02-14T11:30:09.368Z,28.03
2019-02-14T11:31:09.375Z,28.09
2019-02-14T11:32:09.375Z,28.04
2019-02-14T11:33:09.381Z,28.09
2019-02-14T11:34:09.383Z,28.07
2019-02-14T11:35:09.385Z,28.02
2019-02-14T11:36:09.402Z,28.07
2019-02-14T11:37:09.393Z,28.00
2019-02-14T11:38:09.396Z,28.03
2019-02-14T11:39:09.401Z,27.99
2019-02-14T11:40:09.403Z,28.03
2019-02-14T11:41:09.415Z,28.09
2019-02-14T11:42:09.410Z,28.03
2019-02-14T11:43:09.412Z,28.12
2019-02-14T11:44:09.418Z,28.06
2019-02-14T11:45:09.422Z,28.11
2019-02-14T11:46:09.428Z,28.06
2019-02-14T11:47:09.438Z,28.09
2019-02-14T11:48:09.432Z,28.06
2019-02-14T11:49:09.435Z,28.04
2019-02-14T11:50:09.438Z,28.07
2019-02-14T11:51:09.459Z,28.11
2019-02-14T11:52:09.445Z,28.06
2019-02-14T11:53:14.212Z,28.12
2019-02-14T11:54:09.453Z,28.04
2019-02-14T11:55:09.459Z,28.12
2019-02-14T11:56:10.023Z,28.04
2019-02-14T11:57:09.474Z,28.07
2019-02-14T11:58:09.467Z,28.12
2019-02-14T11:59:09.468Z,28.09
2019-02-14T12:00:09.577Z,28.07
2019-02-14T12:01:09.480Z,28.07
2019-02-14T12:02:09.533Z,28.11
2019-02-14T12:03:09.486Z,28.09
2019-02-14T12:04:09.488Z,28.03
2019-02-14T12:05:09.500Z,28.09
2019-02-14T12:06:09.503Z,28.02
2019-02-14T12:07:09.499Z,28.04
2019-02-14T12:08:09.696Z,28.04
2019-02-14T12:09:09.507Z,28.09
2019-02-14T12:10:13.606Z,28.11
2019-02-14T12:11:09.524Z,28.04
2019-02-14T12:12:09.528Z,28.02
2019-02-14T12:13:09.529Z,28.11
2019-02-14T12:14:09.527Z,28.02
2019-02-14T12:15:09.541Z,27.97
2019-02-14T12:16:09.546Z,27.94
2019-02-14T12:17:09.536Z,27.97
2019-02-14T12:18:09.539Z,27.97
2019-02-14T12:19:09.543Z,27.94
2019-02-14T12:20:12.425Z,28.02
2019-02-14T12:21:09.610Z,27.96
2019-02-14T12:22:09.556Z,27.94
2019-02-14T12:23:09.561Z,27.96
2019-02-14T12:24:09.559Z,27.94
2019-02-14T12:25:09.617Z,27.96
2019-02-14T12:26:09.567Z,27.96
2019-02-14T12:27:09.572Z,27.97
2019-02-14T12:28:09.624Z,27.93
2019-02-14T12:29:09.582Z,28.00
2019-02-14T12:30:09.581Z,27.92
2019-02-14T12:31:09.586Z,27.93
2019-02-14T12:32:09.590Z,27.94
2019-02-14T12:33:09.594Z,27.96
2019-02-14T12:34:09.594Z,27.97
2019-02-14T12:35:09.597Z,28.02
2019-02-14T12:36:09.617Z,27.94
2019-02-14T12:37:09.613Z,27.88
2019-02-14T12:38:09.609Z,27.97
2019-02-14T12:39:11.552Z,27.87
2019-02-14T12:40:09.620Z,27.94
2019-02-14T12:41:09.624Z,27.97
2019-02-14T12:42:09.625Z,27.94
2019-02-14T12:43:09.630Z,27.94
2019-02-14T12:44:09.632Z,27.93
2019-02-14T12:45:09.651Z,27.97
2019-02-14T12:46:09.647Z,27.96
2019-02-14T12:47:09.639Z,27.92
2019-02-14T12:48:09.665Z,27.92
2019-02-14T12:49:09.660Z,28.03
2019-02-14T12:50:09.667Z,27.90
2019-02-14T12:51:09.652Z,28.00
2019-02-14T12:52:09.657Z,27.93